sensor_id;sensor_type;location;lat;lon;timestamp;P1;durP1;ratioP1;P2;durP2;ratioP2
78156;SDS011;67400;49.360;8.266;2023-06-22T00:00:49;9.82;;;6.30;;
78156;SDS011;67400;49.360;8.266;2023-06-22T00:02:08;10.52;;;6.97;;
78156;SDS011;67400;49.360;8.266;2023-06-22T00:03:28;10.80;;;7.50;;
78156;SDS011;67400;49.360;8.266;2023-06-22T00:04:48;12.85;;;6.50;;
78156;SDS011;67400;49.360;8.266;2023-06-22T00:06:07;9.68;;;6.88;;
78156;SDS011;67400;49.360;8.266;2023-06-22T00:07:27;8.75;;;6.22;;
78156;SDS011;67400;49.360;8.266;2023-06-22T00:08:46;8.82;;;6.65;;
78156;SDS011;67400;49.360;8.266;2023-06-22T00:10:06;11.98;;;6.13;;
78156;SDS011;67400;49.360;8.266;2023-06-22T00:11:25;9.38;;;6.07;;
78156;SDS011;67400;49.360;8.266;2023-06-22T00:12:46;8.82;;;5.93;;
78156;SDS011;67400;49.360;8.266;2023-06-22T00:14:06;8.63;;;5.72;;
78156;SDS011;67400;49.360;8.266;2023-06-22T00:15:25;8.02;;;6.03;;
78156;SDS011;67400;49.360;8.266;2023-06-22T00:16:44;8.82;;;6.20;;
78156;SDS011;67400;49.360;8.266;2023-06-22T00:18:07;9.30;;;5.85;;
78156;SDS011;67400;49.360;8.266;2023-06-22T00:19:27;8.85;;;5.85;;
78156;SDS011;67400;49.360;8.266;2023-06-22T00:20:47;8.00;;;6.03;;
78156;SDS011;67400;49.360;8.266;2023-06-22T00:22:06;7.65;;;5.15;;
78156;SDS011;67400;49.360;8.266;2023-06-22T00:23:26;9.57;;;5.78;;
78156;SDS011;67400;49.360;8.266;2023-06-22T00:24:45;8.88;;;6.75;;
78156;SDS011;67400;49.360;8.266;2023-06-22T00:26:05;9.75;;;5.72;;
78156;SDS011;67400;49.360;8.266;2023-06-22T00:27:24;8.95;;;6.07;;
78156;SDS011;67400;49.360;8.266;2023-06-22T00:28:44;10.23;;;6.13;;
78156;SDS011;67400;49.360;8.266;2023-06-22T00:30:04;9.48;;;5.45;;
78156;SDS011;67400;49.360;8.266;2023-06-22T00:31:24;9.82;;;5.75;;
78156;SDS011;67400;49.360;8.266;2023-06-22T00:32:46;6.72;;;4.82;;
78156;SDS011;67400;49.360;8.266;2023-06-22T00:34:07;7.72;;;4.82;;
78156;SDS011;67400;49.360;8.266;2023-06-22T00:35:27;6.85;;;4.60;;
78156;SDS011;67400;49.360;8.266;2023-06-22T00:36:50;10.18;;;4.90;;
78156;SDS011;67400;49.360;8.266;2023-06-22T00:38:10;6.70;;;4.75;;
78156;SDS011;67400;49.360;8.266;2023-06-22T00:39:30;8.55;;;4.78;;
78156;SDS011;67400;49.360;8.266;2023-06-22T00:40:51;12.77;;;5.72;;
78156;SDS011;67400;49.360;8.266;2023-06-22T00:42:11;12.52;;;5.05;;
78156;SDS011;67400;49.360;8.266;2023-06-22T00:43:31;11.30;;;5.68;;
78156;SDS011;67400;49.360;8.266;2023-06-22T00:44:55;9.45;;;5.80;;
78156;SDS011;67400;49.360;8.266;2023-06-22T00:46:17;10.50;;;5.35;;
78156;SDS011;67400;49.360;8.266;2023-06-22T00:47:37;13.05;;;5.88;;
78156;SDS011;67400;49.360;8.266;2023-06-22T00:48:57;9.25;;;6.20;;
78156;SDS011;67400;49.360;8.266;2023-06-22T00:50:18;12.55;;;6.38;;
78156;SDS011;67400;49.360;8.266;2023-06-22T00:51:39;11.40;;;6.20;;
78156;SDS011;67400;49.360;8.266;2023-06-22T00:53:07;8.60;;;6.43;;
78156;SDS011;67400;49.360;8.266;2023-06-22T00:54:26;13.02;;;6.47;;
78156;SDS011;67400;49.360;8.266;2023-06-22T00:55:48;9.55;;;5.75;;
78156;SDS011;67400;49.360;8.266;2023-06-22T00:57:13;12.00;;;6.50;;
78156;SDS011;67400;49.360;8.266;2023-06-22T00:58:35;10.27;;;6.05;;
78156;SDS011;67400;49.360;8.266;2023-06-22T00:59:54;10.30;;;6.10;;
78156;SDS011;67400;49.360;8.266;2023-06-22T01:01:14;12.82;;;6.38;;
78156;SDS011;67400;49.360;8.266;2023-06-22T01:02:34;9.80;;;5.72;;
78156;SDS011;67400;49.360;8.266;2023-06-22T01:03:55;10.23;;;6.15;;
78156;SDS011;67400;49.360;8.266;2023-06-22T01:05:20;8.40;;;6.15;;
78156;SDS011;67400;49.360;8.266;2023-06-22T01:06:59;11.82;;;6.15;;
78156;SDS011;67400;49.360;8.266;2023-06-22T01:08:31;9.68;;;6.45;;
78156;SDS011;67400;49.360;8.266;2023-06-22T01:11:25;10.82;;;6.40;;
78156;SDS011;67400;49.360;8.266;2023-06-22T01:12:48;11.55;;;5.88;;
78156;SDS011;67400;49.360;8.266;2023-06-22T01:16:57;11.02;;;6.05;;
78156;SDS011;67400;49.360;8.266;2023-06-22T01:18:18;9.75;;;6.05;;
78156;SDS011;67400;49.360;8.266;2023-06-22T01:19:49;11.38;;;6.75;;
78156;SDS011;67400;49.360;8.266;2023-06-22T01:21:15;12.90;;;6.25;;
78156;SDS011;67400;49.360;8.266;2023-06-22T01:22:39;11.48;;;6.35;;
78156;SDS011;67400;49.360;8.266;2023-06-22T01:25:27;11.63;;;6.07;;
78156;SDS011;67400;49.360;8.266;2023-06-22T01:26:54;11.80;;;6.57;;
78156;SDS011;67400;49.360;8.266;2023-06-22T01:28:22;9.07;;;6.47;;
78156;SDS011;67400;49.360;8.266;2023-06-22T01:29:43;17.52;;;6.72;;
78156;SDS011;67400;49.360;8.266;2023-06-22T01:31:04;13.45;;;6.63;;
78156;SDS011;67400;49.360;8.266;2023-06-22T01:32:24;10.77;;;6.57;;
78156;SDS011;67400;49.360;8.266;2023-06-22T01:33:44;11.25;;;7.32;;
78156;SDS011;67400;49.360;8.266;2023-06-22T01:35:06;13.75;;;7.50;;
78156;SDS011;67400;49.360;8.266;2023-06-22T01:36:27;12.98;;;7.18;;
78156;SDS011;67400;49.360;8.266;2023-06-22T01:37:49;14.07;;;6.90;;
78156;SDS011;67400;49.360;8.266;2023-06-22T01:39:10;10.35;;;6.90;;
78156;SDS011;67400;49.360;8.266;2023-06-22T01:40:31;12.70;;;7.45;;
78156;SDS011;67400;49.360;8.266;2023-06-22T01:41:53;10.20;;;7.18;;
78156;SDS011;67400;49.360;8.266;2023-06-22T01:43:13;11.63;;;6.85;;
78156;SDS011;67400;49.360;8.266;2023-06-22T01:44:33;11.10;;;6.95;;
78156;SDS011;67400;49.360;8.266;2023-06-22T01:45:54;15.82;;;7.70;;
78156;SDS011;67400;49.360;8.266;2023-06-22T01:47:13;11.40;;;7.25;;
78156;SDS011;67400;49.360;8.266;2023-06-22T01:48:36;9.60;;;6.65;;
78156;SDS011;67400;49.360;8.266;2023-06-22T01:49:55;10.63;;;6.65;;
78156;SDS011;67400;49.360;8.266;2023-06-22T01:51:16;14.43;;;7.65;;
78156;SDS011;67400;49.360;8.266;2023-06-22T01:52:35;13.00;;;8.07;;
78156;SDS011;67400;49.360;8.266;2023-06-22T01:53:56;11.52;;;7.38;;
78156;SDS011;67400;49.360;8.266;2023-06-22T01:55:15;12.77;;;7.13;;
78156;SDS011;67400;49.360;8.266;2023-06-22T01:56:35;15.63;;;7.18;;
78156;SDS011;67400;49.360;8.266;2023-06-22T01:57:54;11.48;;;7.63;;
78156;SDS011;67400;49.360;8.266;2023-06-22T02:00:35;13.75;;;8.38;;
78156;SDS011;67400;49.360;8.266;2023-06-22T02:02:19;15.75;;;8.50;;
78156;SDS011;67400;49.360;8.266;2023-06-22T02:03:38;11.88;;;7.75;;
78156;SDS011;67400;49.360;8.266;2023-06-22T02:05:05;18.83;;;8.25;;
78156;SDS011;67400;49.360;8.266;2023-06-22T02:06:27;11.95;;;7.78;;
78156;SDS011;67400;49.360;8.266;2023-06-22T02:07:56;13.40;;;8.27;;
78156;SDS011;67400;49.360;8.266;2023-06-22T02:09:19;13.48;;;8.63;;
78156;SDS011;67400;49.360;8.266;2023-06-22T02:10:41;14.52;;;8.02;;
78156;SDS011;67400;49.360;8.266;2023-06-22T02:12:02;14.50;;;8.45;;
78156;SDS011;67400;49.360;8.266;2023-06-22T02:13:24;12.15;;;7.95;;
78156;SDS011;67400;49.360;8.266;2023-06-22T02:14:47;13.02;;;8.48;;
78156;SDS011;67400;49.360;8.266;2023-06-22T02:16:07;13.73;;;8.23;;
78156;SDS011;67400;49.360;8.266;2023-06-22T02:17:28;15.32;;;8.05;;
78156;SDS011;67400;49.360;8.266;2023-06-22T02:18:53;12.85;;;8.07;;
78156;SDS011;67400;49.360;8.266;2023-06-22T02:20:13;10.70;;;7.55;;
78156;SDS011;67400;49.360;8.266;2023-06-22T02:21:34;13.30;;;8.77;;
78156;SDS011;67400;49.360;8.266;2023-06-22T02:22:53;14.90;;;8.30;;
78156;SDS011;67400;49.360;8.266;2023-06-22T02:24:13;13.98;;;8.93;;
78156;SDS011;67400;49.360;8.266;2023-06-22T02:25:33;12.75;;;8.40;;
78156;SDS011;67400;49.360;8.266;2023-06-22T02:26:53;16.70;;;8.13;;
78156;SDS011;67400;49.360;8.266;2023-06-22T02:28:12;11.70;;;8.02;;
78156;SDS011;67400;49.360;8.266;2023-06-22T02:29:32;12.93;;;8.13;;
78156;SDS011;67400;49.360;8.266;2023-06-22T02:30:52;13.63;;;8.50;;
78156;SDS011;67400;49.360;8.266;2023-06-22T02:32:12;13.63;;;8.57;;
78156;SDS011;67400;49.360;8.266;2023-06-22T02:33:33;13.95;;;8.55;;
78156;SDS011;67400;49.360;8.266;2023-06-22T02:34:53;13.85;;;8.80;;
78156;SDS011;67400;49.360;8.266;2023-06-22T03:14:12;19.00;;;10.57;;
78156;SDS011;67400;49.360;8.266;2023-06-22T03:15:32;17.88;;;10.35;;
78156;SDS011;67400;49.360;8.266;2023-06-22T03:16:52;19.05;;;10.30;;
78156;SDS011;67400;49.360;8.266;2023-06-22T03:18:12;22.80;;;10.90;;
78156;SDS011;67400;49.360;8.266;2023-06-22T03:19:31;18.25;;;11.73;;
78156;SDS011;67400;49.360;8.266;2023-06-22T03:20:51;17.92;;;10.60;;
78156;SDS011;67400;49.360;8.266;2023-06-22T03:22:11;24.20;;;10.75;;
78156;SDS011;67400;49.360;8.266;2023-06-22T03:23:31;18.58;;;11.30;;
78156;SDS011;67400;49.360;8.266;2023-06-22T03:24:51;21.20;;;11.73;;
78156;SDS011;67400;49.360;8.266;2023-06-22T03:26:10;19.27;;;11.18;;
78156;SDS011;67400;49.360;8.266;2023-06-22T03:27:30;18.60;;;11.00;;
78156;SDS011;67400;49.360;8.266;2023-06-22T03:28:49;20.20;;;11.57;;
78156;SDS011;67400;49.360;8.266;2023-06-22T03:30:10;20.92;;;11.98;;
78156;SDS011;67400;49.360;8.266;2023-06-22T03:31:29;19.05;;;10.98;;
78156;SDS011;67400;49.360;8.266;2023-06-22T03:32:49;22.00;;;11.07;;
78156;SDS011;67400;49.360;8.266;2023-06-22T03:34:09;18.30;;;11.65;;
78156;SDS011;67400;49.360;8.266;2023-06-22T03:35:29;20.27;;;11.38;;
78156;SDS011;67400;49.360;8.266;2023-06-22T03:36:48;16.35;;;11.30;;
78156;SDS011;67400;49.360;8.266;2023-06-22T03:38:09;20.55;;;12.23;;
78156;SDS011;67400;49.360;8.266;2023-06-22T03:39:29;18.38;;;11.48;;
78156;SDS011;67400;49.360;8.266;2023-06-22T03:40:50;21.10;;;12.50;;
78156;SDS011;67400;49.360;8.266;2023-06-22T03:42:09;18.90;;;12.45;;
78156;SDS011;67400;49.360;8.266;2023-06-22T03:43:29;20.58;;;11.77;;
78156;SDS011;67400;49.360;8.266;2023-06-22T03:44:49;20.33;;;11.73;;
78156;SDS011;67400;49.360;8.266;2023-06-22T03:46:09;19.77;;;11.40;;
78156;SDS011;67400;49.360;8.266;2023-06-22T03:47:29;20.98;;;11.93;;
78156;SDS011;67400;49.360;8.266;2023-06-22T03:48:50;18.67;;;11.48;;
78156;SDS011;67400;49.360;8.266;2023-06-22T03:50:10;20.67;;;12.95;;
78156;SDS011;67400;49.360;8.266;2023-06-22T03:51:30;20.52;;;12.30;;
78156;SDS011;67400;49.360;8.266;2023-06-22T03:52:50;21.27;;;13.23;;
78156;SDS011;67400;49.360;8.266;2023-06-22T03:54:11;23.00;;;13.35;;
78156;SDS011;67400;49.360;8.266;2023-06-22T03:55:30;23.20;;;13.05;;
78156;SDS011;67400;49.360;8.266;2023-06-22T03:56:50;23.27;;;12.95;;
78156;SDS011;67400;49.360;8.266;2023-06-22T03:58:10;24.08;;;12.45;;
78156;SDS011;67400;49.360;8.266;2023-06-22T03:59:30;21.20;;;13.00;;
78156;SDS011;67400;49.360;8.266;2023-06-22T04:00:51;21.67;;;13.43;;
78156;SDS011;67400;49.360;8.266;2023-06-22T04:02:11;23.40;;;12.80;;
78156;SDS011;67400;49.360;8.266;2023-06-22T04:03:31;23.88;;;13.70;;
78156;SDS011;67400;49.360;8.266;2023-06-22T04:04:51;21.38;;;14.27;;
78156;SDS011;67400;49.360;8.266;2023-06-22T04:06:10;22.17;;;13.07;;
78156;SDS011;67400;49.360;8.266;2023-06-22T04:07:30;22.20;;;13.05;;
78156;SDS011;67400;49.360;8.266;2023-06-22T04:08:49;20.60;;;13.15;;
78156;SDS011;67400;49.360;8.266;2023-06-22T04:10:09;20.67;;;12.43;;
78156;SDS011;67400;49.360;8.266;2023-06-22T04:11:29;19.15;;;12.52;;
78156;SDS011;67400;49.360;8.266;2023-06-22T04:12:48;19.77;;;11.75;;
78156;SDS011;67400;49.360;8.266;2023-06-22T04:14:08;21.85;;;12.52;;
78156;SDS011;67400;49.360;8.266;2023-06-22T04:15:28;21.38;;;13.20;;
78156;SDS011;67400;49.360;8.266;2023-06-22T04:16:48;20.65;;;12.10;;
78156;SDS011;67400;49.360;8.266;2023-06-22T04:18:07;20.10;;;12.65;;
78156;SDS011;67400;49.360;8.266;2023-06-22T04:19:27;18.13;;;11.88;;
78156;SDS011;67400;49.360;8.266;2023-06-22T04:20:47;20.30;;;12.07;;
78156;SDS011;67400;49.360;8.266;2023-06-22T04:22:06;19.58;;;12.07;;
78156;SDS011;67400;49.360;8.266;2023-06-22T04:23:26;20.45;;;12.15;;
78156;SDS011;67400;49.360;8.266;2023-06-22T04:24:46;21.30;;;12.40;;
78156;SDS011;67400;49.360;8.266;2023-06-22T04:26:05;19.58;;;12.55;;
78156;SDS011;67400;49.360;8.266;2023-06-22T04:27:24;19.10;;;12.60;;
78156;SDS011;67400;49.360;8.266;2023-06-22T04:28:44;22.85;;;12.75;;
78156;SDS011;67400;49.360;8.266;2023-06-22T04:30:10;20.02;;;12.48;;
78156;SDS011;67400;49.360;8.266;2023-06-22T04:31:33;22.08;;;13.48;;
78156;SDS011;67400;49.360;8.266;2023-06-22T04:32:55;17.55;;;12.38;;
78156;SDS011;67400;49.360;8.266;2023-06-22T04:34:17;19.90;;;13.77;;
78156;SDS011;67400;49.360;8.266;2023-06-22T04:35:38;16.48;;;12.48;;
78156;SDS011;67400;49.360;8.266;2023-06-22T04:36:59;19.27;;;12.60;;
78156;SDS011;67400;49.360;8.266;2023-06-22T04:38:19;17.67;;;11.80;;
78156;SDS011;67400;49.360;8.266;2023-06-22T04:39:40;17.33;;;12.75;;
78156;SDS011;67400;49.360;8.266;2023-06-22T04:41:00;19.33;;;12.43;;
78156;SDS011;67400;49.360;8.266;2023-06-22T04:42:22;17.92;;;11.80;;
78156;SDS011;67400;49.360;8.266;2023-06-22T04:43:42;18.65;;;11.25;;
78156;SDS011;67400;49.360;8.266;2023-06-22T04:45:02;16.67;;;10.73;;
78156;SDS011;67400;49.360;8.266;2023-06-22T04:46:22;17.42;;;12.05;;
78156;SDS011;67400;49.360;8.266;2023-06-22T04:47:41;15.15;;;11.07;;
78156;SDS011;67400;49.360;8.266;2023-06-22T04:49:01;16.35;;;10.73;;
78156;SDS011;67400;49.360;8.266;2023-06-22T04:50:20;15.85;;;11.77;;
78156;SDS011;67400;49.360;8.266;2023-06-22T04:51:42;17.88;;;11.30;;
78156;SDS011;67400;49.360;8.266;2023-06-22T04:53:01;21.17;;;12.18;;
78156;SDS011;67400;49.360;8.266;2023-06-22T04:54:24;16.58;;;11.32;;
78156;SDS011;67400;49.360;8.266;2023-06-22T04:55:44;18.02;;;12.00;;
78156;SDS011;67400;49.360;8.266;2023-06-22T04:57:05;20.52;;;11.82;;
78156;SDS011;67400;49.360;8.266;2023-06-22T04:58:28;16.08;;;11.60;;
78156;SDS011;67400;49.360;8.266;2023-06-22T04:59:51;19.80;;;11.52;;
78156;SDS011;67400;49.360;8.266;2023-06-22T05:01:10;20.73;;;12.38;;
78156;SDS011;67400;49.360;8.266;2023-06-22T05:02:30;20.67;;;12.02;;
78156;SDS011;67400;49.360;8.266;2023-06-22T05:03:50;16.40;;;11.32;;
78156;SDS011;67400;49.360;8.266;2023-06-22T05:05:19;19.98;;;12.55;;
78156;SDS011;67400;49.360;8.266;2023-06-22T05:06:39;16.92;;;11.82;;
78156;SDS011;67400;49.360;8.266;2023-06-22T05:08:00;19.33;;;12.23;;
78156;SDS011;67400;49.360;8.266;2023-06-22T05:09:20;16.95;;;12.32;;
78156;SDS011;67400;49.360;8.266;2023-06-22T05:10:41;22.50;;;13.20;;
78156;SDS011;67400;49.360;8.266;2023-06-22T05:12:01;18.92;;;12.27;;
78156;SDS011;67400;49.360;8.266;2023-06-22T05:13:21;18.60;;;11.93;;
78156;SDS011;67400;49.360;8.266;2023-06-22T05:14:45;18.67;;;13.07;;
78156;SDS011;67400;49.360;8.266;2023-06-22T05:16:04;23.35;;;13.27;;
78156;SDS011;67400;49.360;8.266;2023-06-22T05:17:24;21.00;;;13.63;;
78156;SDS011;67400;49.360;8.266;2023-06-22T05:18:44;18.10;;;12.93;;
78156;SDS011;67400;49.360;8.266;2023-06-22T05:20:04;19.88;;;12.57;;
78156;SDS011;67400;49.360;8.266;2023-06-22T05:21:25;20.10;;;12.75;;
78156;SDS011;67400;49.360;8.266;2023-06-22T05:22:45;19.42;;;12.65;;
78156;SDS011;67400;49.360;8.266;2023-06-22T05:24:04;20.55;;;13.25;;
78156;SDS011;67400;49.360;8.266;2023-06-22T05:25:24;19.33;;;13.07;;
78156;SDS011;67400;49.360;8.266;2023-06-22T05:26:44;17.95;;;12.40;;
78156;SDS011;67400;49.360;8.266;2023-06-22T05:28:03;20.80;;;14.32;;
78156;SDS011;67400;49.360;8.266;2023-06-22T05:29:30;22.33;;;13.45;;
78156;SDS011;67400;49.360;8.266;2023-06-22T05:30:49;20.17;;;12.73;;
78156;SDS011;67400;49.360;8.266;2023-06-22T05:32:09;18.98;;;12.20;;
78156;SDS011;67400;49.360;8.266;2023-06-22T05:33:29;22.73;;;13.38;;
78156;SDS011;67400;49.360;8.266;2023-06-22T05:34:48;26.13;;;13.55;;
78156;SDS011;67400;49.360;8.266;2023-06-22T05:36:08;16.70;;;13.60;;
78156;SDS011;67400;49.360;8.266;2023-06-22T05:37:28;19.55;;;13.57;;
78156;SDS011;67400;49.360;8.266;2023-06-22T05:38:48;20.27;;;13.50;;
78156;SDS011;67400;49.360;8.266;2023-06-22T05:40:08;19.63;;;13.25;;
78156;SDS011;67400;49.360;8.266;2023-06-22T05:41:28;17.55;;;13.43;;
78156;SDS011;67400;49.360;8.266;2023-06-22T05:42:48;20.42;;;12.98;;
78156;SDS011;67400;49.360;8.266;2023-06-22T05:44:08;25.05;;;13.38;;
78156;SDS011;67400;49.360;8.266;2023-06-22T05:45:27;20.20;;;13.43;;
78156;SDS011;67400;49.360;8.266;2023-06-22T05:46:47;17.73;;;12.75;;
78156;SDS011;67400;49.360;8.266;2023-06-22T05:48:06;17.83;;;12.90;;
78156;SDS011;67400;49.360;8.266;2023-06-22T05:49:26;20.70;;;13.85;;
78156;SDS011;67400;49.360;8.266;2023-06-22T05:50:51;20.40;;;12.30;;
78156;SDS011;67400;49.360;8.266;2023-06-22T05:52:10;21.30;;;13.70;;
78156;SDS011;67400;49.360;8.266;2023-06-22T05:53:30;21.38;;;14.52;;
78156;SDS011;67400;49.360;8.266;2023-06-22T05:54:49;20.80;;;13.38;;
78156;SDS011;67400;49.360;8.266;2023-06-22T05:56:09;26.05;;;13.38;;
78156;SDS011;67400;49.360;8.266;2023-06-22T05:57:28;17.73;;;12.30;;
78156;SDS011;67400;49.360;8.266;2023-06-22T05:58:48;18.77;;;13.02;;
78156;SDS011;67400;49.360;8.266;2023-06-22T06:00:08;20.35;;;13.20;;
78156;SDS011;67400;49.360;8.266;2023-06-22T06:01:29;15.88;;;12.98;;
78156;SDS011;67400;49.360;8.266;2023-06-22T06:02:53;19.05;;;13.15;;
78156;SDS011;67400;49.360;8.266;2023-06-22T06:04:13;18.95;;;13.15;;
78156;SDS011;67400;49.360;8.266;2023-06-22T06:05:32;20.60;;;13.15;;
78156;SDS011;67400;49.360;8.266;2023-06-22T06:06:52;19.42;;;13.23;;
78156;SDS011;67400;49.360;8.266;2023-06-22T06:08:11;22.85;;;13.40;;
78156;SDS011;67400;49.360;8.266;2023-06-22T06:09:31;18.45;;;14.23;;
78156;SDS011;67400;49.360;8.266;2023-06-22T06:10:51;19.55;;;13.65;;
78156;SDS011;67400;49.360;8.266;2023-06-22T06:12:12;24.20;;;13.88;;
78156;SDS011;67400;49.360;8.266;2023-06-22T06:13:32;20.60;;;14.60;;
78156;SDS011;67400;49.360;8.266;2023-06-22T06:14:51;25.10;;;13.60;;
78156;SDS011;67400;49.360;8.266;2023-06-22T06:16:13;20.17;;;13.82;;
78156;SDS011;67400;49.360;8.266;2023-06-22T06:17:32;17.92;;;14.23;;
78156;SDS011;67400;49.360;8.266;2023-06-22T06:18:51;23.33;;;14.23;;
78156;SDS011;67400;49.360;8.266;2023-06-22T06:20:13;21.20;;;14.88;;
78156;SDS011;67400;49.360;8.266;2023-06-22T06:21:33;20.77;;;14.80;;
78156;SDS011;67400;49.360;8.266;2023-06-22T06:22:53;17.00;;;13.68;;
78156;SDS011;67400;49.360;8.266;2023-06-22T06:24:12;16.13;;;13.10;;
78156;SDS011;67400;49.360;8.266;2023-06-22T06:25:32;14.80;;;12.25;;
78156;SDS011;67400;49.360;8.266;2023-06-22T06:26:51;18.60;;;13.88;;
78156;SDS011;67400;49.360;8.266;2023-06-22T06:28:11;17.92;;;12.73;;
78156;SDS011;67400;49.360;8.266;2023-06-22T06:29:31;15.57;;;12.48;;
78156;SDS011;67400;49.360;8.266;2023-06-22T06:30:51;16.88;;;13.82;;
78156;SDS011;67400;49.360;8.266;2023-06-22T06:32:10;17.10;;;12.55;;
78156;SDS011;67400;49.360;8.266;2023-06-22T06:33:31;14.63;;;12.07;;
78156;SDS011;67400;49.360;8.266;2023-06-22T06:34:51;17.85;;;12.07;;
78156;SDS011;67400;49.360;8.266;2023-06-22T06:36:10;16.55;;;12.48;;
78156;SDS011;67400;49.360;8.266;2023-06-22T06:37:30;13.40;;;11.57;;
78156;SDS011;67400;49.360;8.266;2023-06-22T06:38:50;14.13;;;12.05;;
78156;SDS011;67400;49.360;8.266;2023-06-22T06:40:09;12.93;;;11.63;;
78156;SDS011;67400;49.360;8.266;2023-06-22T06:41:29;15.13;;;12.10;;
78156;SDS011;67400;49.360;8.266;2023-06-22T06:42:49;15.50;;;11.57;;
78156;SDS011;67400;49.360;8.266;2023-06-22T06:44:09;14.45;;;11.75;;
78156;SDS011;67400;49.360;8.266;2023-06-22T06:45:29;13.02;;;10.85;;
78156;SDS011;67400;49.360;8.266;2023-06-22T06:46:51;13.55;;;11.75;;
78156;SDS011;67400;49.360;8.266;2023-06-22T06:48:12;13.15;;;11.68;;
78156;SDS011;67400;49.360;8.266;2023-06-22T06:49:33;14.57;;;11.50;;
78156;SDS011;67400;49.360;8.266;2023-06-22T06:50:52;17.02;;;11.18;;
78156;SDS011;67400;49.360;8.266;2023-06-22T06:52:11;15.02;;;10.52;;
78156;SDS011;67400;49.360;8.266;2023-06-22T06:53:31;13.70;;;11.15;;
78156;SDS011;67400;49.360;8.266;2023-06-22T06:54:51;13.77;;;11.18;;
78156;SDS011;67400;49.360;8.266;2023-06-22T06:56:10;12.95;;;11.55;;
78156;SDS011;67400;49.360;8.266;2023-06-22T06:57:30;15.80;;;10.63;;
78156;SDS011;67400;49.360;8.266;2023-06-22T06:58:52;15.38;;;11.73;;
78156;SDS011;67400;49.360;8.266;2023-06-22T07:00:12;16.30;;;11.38;;
78156;SDS011;67400;49.360;8.266;2023-06-22T07:01:32;13.10;;;11.25;;
78156;SDS011;67400;49.360;8.266;2023-06-22T07:02:52;14.10;;;10.63;;
78156;SDS011;67400;49.360;8.266;2023-06-22T07:04:12;15.10;;;11.68;;
78156;SDS011;67400;49.360;8.266;2023-06-22T07:05:31;14.02;;;12.30;;
78156;SDS011;67400;49.360;8.266;2023-06-22T07:06:51;13.15;;;11.70;;
78156;SDS011;67400;49.360;8.266;2023-06-22T07:08:10;20.38;;;12.10;;
78156;SDS011;67400;49.360;8.266;2023-06-22T07:09:30;12.82;;;10.93;;
78156;SDS011;67400;49.360;8.266;2023-06-22T07:10:49;16.75;;;11.30;;
78156;SDS011;67400;49.360;8.266;2023-06-22T07:12:09;15.70;;;11.10;;
78156;SDS011;67400;49.360;8.266;2023-06-22T07:13:29;14.52;;;11.55;;
78156;SDS011;67400;49.360;8.266;2023-06-22T07:14:49;14.18;;;10.15;;
78156;SDS011;67400;49.360;8.266;2023-06-22T07:16:10;13.27;;;10.50;;
78156;SDS011;67400;49.360;8.266;2023-06-22T07:17:29;12.50;;;10.45;;
78156;SDS011;67400;49.360;8.266;2023-06-22T07:18:49;14.50;;;10.88;;
78156;SDS011;67400;49.360;8.266;2023-06-22T07:20:09;15.00;;;10.48;;
78156;SDS011;67400;49.360;8.266;2023-06-22T07:21:30;12.88;;;10.40;;
78156;SDS011;67400;49.360;8.266;2023-06-22T07:22:49;12.20;;;10.25;;
78156;SDS011;67400;49.360;8.266;2023-06-22T07:24:09;14.27;;;10.48;;
78156;SDS011;67400;49.360;8.266;2023-06-22T07:25:28;11.70;;;9.50;;
78156;SDS011;67400;49.360;8.266;2023-06-22T07:26:48;12.00;;;9.88;;
78156;SDS011;67400;49.360;8.266;2023-06-22T07:28:08;10.13;;;8.63;;
78156;SDS011;67400;49.360;8.266;2023-06-22T07:29:28;13.40;;;9.45;;
78156;SDS011;67400;49.360;8.266;2023-06-22T07:30:48;9.10;;;8.13;;
78156;SDS011;67400;49.360;8.266;2023-06-22T07:32:09;11.77;;;9.68;;
78156;SDS011;67400;49.360;8.266;2023-06-22T07:33:29;12.82;;;9.02;;
78156;SDS011;67400;49.360;8.266;2023-06-22T07:34:49;8.65;;;7.55;;
78156;SDS011;67400;49.360;8.266;2023-06-22T07:36:08;9.85;;;8.18;;
78156;SDS011;67400;49.360;8.266;2023-06-22T07:37:28;8.82;;;7.93;;
78156;SDS011;67400;49.360;8.266;2023-06-22T07:38:47;9.27;;;7.75;;
78156;SDS011;67400;49.360;8.266;2023-06-22T07:40:07;10.15;;;7.43;;
78156;SDS011;67400;49.360;8.266;2023-06-22T07:41:27;9.63;;;7.22;;
78156;SDS011;67400;49.360;8.266;2023-06-22T07:42:46;8.85;;;6.50;;
78156;SDS011;67400;49.360;8.266;2023-06-22T07:44:11;8.57;;;6.50;;
78156;SDS011;67400;49.360;8.266;2023-06-22T07:45:31;9.55;;;6.18;;
78156;SDS011;67400;49.360;8.266;2023-06-22T07:46:53;7.68;;;5.70;;
78156;SDS011;67400;49.360;8.266;2023-06-22T07:48:13;7.78;;;6.38;;
78156;SDS011;67400;49.360;8.266;2023-06-22T07:49:32;9.10;;;6.53;;
78156;SDS011;67400;49.360;8.266;2023-06-22T07:50:52;7.28;;;6.18;;
78156;SDS011;67400;49.360;8.266;2023-06-22T07:52:12;8.43;;;6.43;;
78156;SDS011;67400;49.360;8.266;2023-06-22T07:53:31;10.63;;;6.65;;
78156;SDS011;67400;49.360;8.266;2023-06-22T07:54:51;6.35;;;5.68;;
78156;SDS011;67400;49.360;8.266;2023-06-22T07:56:10;8.25;;;5.93;;
78156;SDS011;67400;49.360;8.266;2023-06-22T07:57:30;8.45;;;5.82;;
78156;SDS011;67400;49.360;8.266;2023-06-22T07:58:54;10.82;;;6.10;;
78156;SDS011;67400;49.360;8.266;2023-06-22T08:00:17;7.90;;;6.25;;
78156;SDS011;67400;49.360;8.266;2023-06-22T08:01:36;6.30;;;5.70;;
78156;SDS011;67400;49.360;8.266;2023-06-22T08:02:56;6.55;;;5.53;;
78156;SDS011;67400;49.360;8.266;2023-06-22T08:04:15;9.70;;;6.28;;
78156;SDS011;67400;49.360;8.266;2023-06-22T08:05:35;8.18;;;5.65;;
78156;SDS011;67400;49.360;8.266;2023-06-22T08:06:54;7.90;;;6.13;;
78156;SDS011;67400;49.360;8.266;2023-06-22T08:08:14;7.13;;;5.43;;
78156;SDS011;67400;49.360;8.266;2023-06-22T08:09:34;9.23;;;6.35;;
78156;SDS011;67400;49.360;8.266;2023-06-22T08:10:54;11.00;;;5.90;;
78156;SDS011;67400;49.360;8.266;2023-06-22T08:12:14;8.13;;;4.90;;
78156;SDS011;67400;49.360;8.266;2023-06-22T08:13:34;8.35;;;5.75;;
78156;SDS011;67400;49.360;8.266;2023-06-22T08:14:53;7.70;;;5.80;;
78156;SDS011;67400;49.360;8.266;2023-06-22T08:16:13;9.75;;;5.40;;
78156;SDS011;67400;49.360;8.266;2023-06-22T08:17:33;6.88;;;5.30;;
78156;SDS011;67400;49.360;8.266;2023-06-22T08:18:53;7.00;;;5.80;;
78156;SDS011;67400;49.360;8.266;2023-06-22T08:20:13;7.40;;;5.60;;
78156;SDS011;67400;49.360;8.266;2023-06-22T08:21:33;10.18;;;5.80;;
78156;SDS011;67400;49.360;8.266;2023-06-22T08:22:53;7.38;;;5.63;;
78156;SDS011;67400;49.360;8.266;2023-06-22T08:24:13;6.60;;;5.40;;
78156;SDS011;67400;49.360;8.266;2023-06-22T08:25:33;10.63;;;6.00;;
78156;SDS011;67400;49.360;8.266;2023-06-22T08:26:53;7.93;;;5.93;;
78156;SDS011;67400;49.360;8.266;2023-06-22T08:28:12;7.25;;;5.45;;
78156;SDS011;67400;49.360;8.266;2023-06-22T08:29:32;8.15;;;5.45;;
78156;SDS011;67400;49.360;8.266;2023-06-22T08:30:51;9.32;;;5.70;;
78156;SDS011;67400;49.360;8.266;2023-06-22T08:32:14;9.10;;;5.95;;
78156;SDS011;67400;49.360;8.266;2023-06-22T08:33:33;7.32;;;5.88;;
78156;SDS011;67400;49.360;8.266;2023-06-22T08:34:53;6.00;;;5.05;;
78156;SDS011;67400;49.360;8.266;2023-06-22T08:36:13;6.25;;;5.43;;
78156;SDS011;67400;49.360;8.266;2023-06-22T08:37:33;6.50;;;5.00;;
78156;SDS011;67400;49.360;8.266;2023-06-22T08:38:53;5.82;;;5.00;;
78156;SDS011;67400;49.360;8.266;2023-06-22T08:40:16;6.03;;;5.25;;
78156;SDS011;67400;49.360;8.266;2023-06-22T08:41:36;7.95;;;5.50;;